Stations météo

réclame
Mon MeteoGroup
Fyvie castle, Grande-Bretagne (99010): Température de l'air & dewpoint: 17.09.2018 02:00:00 - 23.09.2018 02:00:00 (BST)Fyvie castle, Grande-Bretagne (99010): Quantités de précipitations: 17.09.2018 02:00:00 - 23.09.2018 02:00:00 (BST)
Date & Time tt [°C] td [°C] rr [mm]
23.09.2018 02:00:00 5,6 3,5 0,0
23.09.2018 01:00:00 6,2 4,2 0,0
23.09.2018 00:00:00 5,5 4,0 0,0
22.09.2018 23:00:00 5,5 4,2 0,0
22.09.2018 22:00:00 6,4 4,1 0,0
22.09.2018 21:00:00 7,2 4,7 0,0
22.09.2018 20:00:00 7,6 4,8 0,0
22.09.2018 19:00:00 9,0 5,2 0,0
22.09.2018 18:00:00 10,1 5,6 0,0
22.09.2018 17:00:00 10,1 6,4 0,0
22.09.2018 16:00:00 10,4 6,5 0,2
22.09.2018 15:00:00 12,3 6,2 0,0
22.09.2018 14:00:00 11,4 7,2 0,2
22.09.2018 13:00:00 11,3 6,3 0,0
22.09.2018 12:00:00 10,7 6,0 0,0
22.09.2018 11:00:00 10,9 5,6 0,0
22.09.2018 10:00:00 9,8 5,3 0,0
22.09.2018 09:00:00 9,4 4,2 0,0
22.09.2018 08:00:00 8,4 3,0 0,0
22.09.2018 07:00:00 8,0 2,6 0,0
22.09.2018 06:00:00 7,7 2,9 0,0
22.09.2018 05:00:00 7,6 3,3 0,0
22.09.2018 04:00:00 7,9 3,6 0,0
22.09.2018 03:00:00 7,8 3,8 0,0
22.09.2018 02:00:00 7,7 3,3 0,0
22.09.2018 01:00:00 7,4 2,9 0,0
22.09.2018 00:00:00 7,0 3,2 0,0
21.09.2018 23:00:00 8,0 3,9 0,0
21.09.2018 22:00:00 7,9 3,6 0,0
21.09.2018 21:00:00 7,5 3,7 0,0
21.09.2018 20:00:00 7,9 3,8 0,0
21.09.2018 19:00:00 9,9 3,7 0,0
21.09.2018 18:00:00 10,8 4,4 0,0
21.09.2018 17:00:00 10,7 4,3 0,0
21.09.2018 16:00:00 9,8 7,3 0,4
21.09.2018 15:00:00 9,3 5,9 0,0
21.09.2018 14:00:00 9,7 7,0 0,2
21.09.2018 13:00:00 9,7 6,0 0,0
21.09.2018 12:00:00 8,2 7,1 1,0
21.09.2018 11:00:00 8,5 6,9 4,0
21.09.2018 10:00:00 7,7 6,7 1,2
21.09.2018 09:00:00 7,9 5,9 0,2
21.09.2018 08:00:00 7,3 6,0 0,8
21.09.2018 07:00:00 7,3 5,5 0,2
21.09.2018 06:00:00 7,7 6,0 0,0
21.09.2018 05:00:00 8,0 6,1 0,4
21.09.2018 04:00:00 7,8 6,0 0,2
21.09.2018 03:00:00 6,9 6,2 0,0
21.09.2018 02:00:00 7,1 6,3 0,0
21.09.2018 01:00:00 7,0 6,0 0,0
21.09.2018 00:00:00 7,1 5,9 0,0
20.09.2018 23:00:00 7,2 5,8 0,0
20.09.2018 22:00:00 7,5 5,7 0,0
20.09.2018 21:00:00 7,2 5,3 0,0
20.09.2018 20:00:00 9,0 5,4 0,0
20.09.2018 19:00:00 10,8 5,6 0,0
20.09.2018 18:00:00 12,7 4,1 0,0
20.09.2018 17:00:00 13,6 2,9 0,0
20.09.2018 16:00:00 14,4 2,9 0,0
20.09.2018 15:00:00 15,1 3,2 0,0
20.09.2018 14:00:00 15,7 3,9 0,0
20.09.2018 13:00:00 15,2 4,5 0,0
20.09.2018 12:00:00 13,9 3,3 0,0
20.09.2018 11:00:00 13,3 4,5 0,0
20.09.2018 10:00:00 11,3 3,7 0,0
20.09.2018 09:00:00 10,4 3,6 0,0
20.09.2018 08:00:00 9,7 3,4 0,0
20.09.2018 07:00:00 9,1 3,4 0,0
20.09.2018 06:00:00 9,1 3,4 0,0
20.09.2018 05:00:00 9,0 3,6 0,0
20.09.2018 04:00:00 9,0 3,6 0,0
20.09.2018 03:00:00 8,3 3,2 0,0
20.09.2018 02:00:00 8,6 4,0 0,0
20.09.2018 01:00:00 9,0 3,9 0,0
20.09.2018 00:00:00 9,5 3,5 0,0
19.09.2018 23:00:00 10,0 3,8 0,0
19.09.2018 22:00:00 9,9 4,1 0,0
19.09.2018 21:00:00 10,4 4,6 0,0
19.09.2018 20:00:00 10,4 4,7 0,0
19.09.2018 19:00:00 11,3 4,7 0,0
19.09.2018 18:00:00 12,7 5,2 0,0
19.09.2018 17:00:00 13,6 5,2 0,0
19.09.2018 16:00:00 15,6 8,7 0,0
19.09.2018 15:00:00 14,8 8,0 0,0
19.09.2018 14:00:00 15,1 7,4 3,0
19.09.2018 13:00:00 12,9 11,5 1,6
19.09.2018 12:00:00 13,4 11,5 0,2
19.09.2018 11:00:00 12,0 10,3 0,4
19.09.2018 10:00:00 11,1 7,4 0,0
19.09.2018 09:00:00 11,4 6,5 0,0
19.09.2018 08:00:00 10,9 5,6 0,0
19.09.2018 07:00:00 10,8 6,0 0,0
19.09.2018 06:00:00 9,3 6,2 0,0
19.09.2018 05:00:00 10,0 6,4 0,0
19.09.2018 04:00:00 8,2 6,4 0,0
19.09.2018 03:00:00 9,7 6,4 1,4
19.09.2018 02:00:00 12,4 7,9 0,0
19.09.2018 01:00:00 11,7 8,6 0,0
19.09.2018 00:00:00 12,7 9,2 0,0
18.09.2018 23:00:00 13,4 11,0 0,0
18.09.2018 22:00:00 14,4 10,5 0,0
18.09.2018 21:00:00 13,6 10,3 0,0
18.09.2018 20:00:00 15,1 9,9 0,0
18.09.2018 19:00:00 16,4 9,4 0,0
18.09.2018 18:00:00 18,0 10,3 0,0
18.09.2018 17:00:00 19,1 14,1 0,0
18.09.2018 16:00:00 18,0 14,9 0,0
18.09.2018 15:00:00 18,0 15,8 0,0
18.09.2018 14:00:00 17,1 14,8 0,0
18.09.2018 13:00:00 17,1 15,2 0,0
18.09.2018 12:00:00 16,2 14,7 0,0
18.09.2018 11:00:00 15,6 14,6 0,0
18.09.2018 10:00:00 14,4 13,8 0,0
18.09.2018 09:00:00 13,9 13,2 0,0
18.09.2018 08:00:00 14,1 12,4 0,0
18.09.2018 07:00:00 15,0 11,9 0,0
18.09.2018 06:00:00 15,2 12,2 0,0
18.09.2018 05:00:00 15,4 12,5 0,0
18.09.2018 04:00:00 16,0 12,3 0,0
18.09.2018 03:00:00 16,7 12,6 0,0
18.09.2018 02:00:00 17,1 12,8 0,0
18.09.2018 01:00:00 17,3 12,8 0,0
18.09.2018 00:00:00 17,4 13,2 0,0
17.09.2018 23:00:00 16,9 13,5 0,0
17.09.2018 22:00:00 15,8 13,5 0,0
17.09.2018 21:00:00 14,5 12,9 0,0
17.09.2018 20:00:00 13,7 11,7 0,0
17.09.2018 19:00:00 13,3 10,9 0,0
17.09.2018 18:00:00 13,7 10,7 0,0
17.09.2018 17:00:00 13,1 10,7 0,0
17.09.2018 16:00:00 12,4 10,4 0,0
17.09.2018 15:00:00 12,2 11,1 0,0
17.09.2018 14:00:00 12,7 10,4 0,0
17.09.2018 13:00:00 12,6 10,5 0,0
17.09.2018 12:00:00 12,4 10,7 0,0
17.09.2018 11:00:00 12,2 9,9 0,0
17.09.2018 10:00:00 12,0 9,6 0,0
17.09.2018 09:00:00 11,4 9,4 0,0
17.09.2018 08:00:00 10,2 8,8 0,0
17.09.2018 07:00:00 9,4 8,2 0,0
17.09.2018 06:00:00 9,5 8,3 0,0
17.09.2018 05:00:00 8,9 7,6 0,0
17.09.2018 04:00:00 9,7 8,1 0,0
17.09.2018 03:00:00 8,2 7,2 0,0
17.09.2018 02:00:00 7,0 6,7 0,0

tt = Température de l'air
td = dewpoint
rr = Quantités de précipitations

stations d'obs. à proximité